SAS2CH ENHD-EKBI
Flight info
| Callsign | SAS2CH |
|---|---|
| Flight time | 0h 45m |
| Altitude | 39000 |
| Route | BIVKI DCT GELBA |
| Aircraft | B736/M-SDE2E3FGHIRWXY/LB1 |
Departure
| Time | 2026-04-18 09:23 |
|---|---|
| Airport | Haugesund Airport, Karmøy (ENHD) |
Arrival
| Time | 2026-04-18 10:09 |
|---|---|
| Airport | Billund Airport (EKBI) |
| Time | Latitude | Longitude | Altitude | Speed | Heading |
|---|---|---|---|---|---|
| 2026-04-18 09:07 | 59.34452 | 5.21561 | 88 ft | 0 kts | 44° |
| 2026-04-18 09:18 | 59.34449 | 5.21556 | 86 ft | 3 kts | 44° |
| 2026-04-18 09:18 | 59.34430 | 5.21519 | 90 ft | 4 kts | 44° |
| 2026-04-18 09:19 | 59.34416 | 5.21493 | 88 ft | 0 kts | 44° |
| 2026-04-18 09:20 | 59.34428 | 5.21499 | 86 ft | 8 kts | 2° |
| 2026-04-18 09:21 | 59.34414 | 5.21417 | 86 ft | 11 kts | 201° |
| 2026-04-18 09:21 | 59.34344 | 5.21261 | 88 ft | 21 kts | 269° |
| 2026-04-18 09:21 | 59.34461 | 5.20970 | 83 ft | 32 kts | 314° |
| 2026-04-18 09:21 | 59.34631 | 5.20629 | 76 ft | 37 kts | 314° |
| 2026-04-18 09:22 | 59.34819 | 5.20251 | 76 ft | 41 kts | 314° |
| 2026-04-18 09:22 | 59.35004 | 5.19882 | 70 ft | 21 kts | 315° |
| 2026-04-18 09:22 | 59.35065 | 5.19777 | 69 ft | 7 kts | 209° |
| 2026-04-18 09:22 | 59.35019 | 5.19852 | 66 ft | 20 kts | 134° |
| 2026-04-18 09:23 | 59.34748 | 5.20392 | 74 ft | 90 kts | 134° |
| 2026-04-18 09:23 | 59.34180 | 5.21548 | 113 ft | 140 kts | 134° |
| 2026-04-18 09:23 | 59.33497 | 5.22982 | 641 ft | 144 kts | 136° |
| 2026-04-18 09:23 | 59.32733 | 5.24460 | 1033 ft | 170 kts | 139° |
| 2026-04-18 09:24 | 59.31821 | 5.26266 | 1409 ft | 196 kts | 136° |
| 2026-04-18 09:24 | 59.30882 | 5.28227 | 2243 ft | 196 kts | 135° |
| 2026-04-18 09:24 | 59.29979 | 5.30234 | 3056 ft | 202 kts | 135° |
| 2026-04-18 09:24 | 59.28972 | 5.32381 | 3459 ft | 226 kts | 136° |
| 2026-04-18 09:25 | 59.27855 | 5.34645 | 4181 ft | 232 kts | 138° |
| 2026-04-18 09:25 | 59.26757 | 5.36800 | 5246 ft | 226 kts | 138° |
| 2026-04-18 09:25 | 59.25643 | 5.39199 | 5749 ft | 248 kts | 136° |
| 2026-04-18 09:25 | 59.24494 | 5.41730 | 6502 ft | 253 kts | 136° |
| 2026-04-18 09:26 | 59.23312 | 5.44323 | 7381 ft | 257 kts | 136° |
| 2026-04-18 09:26 | 59.22113 | 5.46940 | 8282 ft | 260 kts | 137° |
| 2026-04-18 09:26 | 59.20892 | 5.49585 | 9275 ft | 263 kts | 137° |
| 2026-04-18 09:26 | 59.19655 | 5.52241 | 10226 ft | 268 kts | 138° |
| 2026-04-18 09:27 | 59.18348 | 5.55020 | 10673 ft | 291 kts | 137° |
| 2026-04-18 09:27 | 59.16911 | 5.58061 | 11060 ft | 313 kts | 137° |
| 2026-04-18 09:27 | 59.15388 | 5.61159 | 11807 ft | 319 kts | 143° |
| 2026-04-18 09:27 | 59.13616 | 5.63663 | 12691 ft | 319 kts | 153° |
| 2026-04-18 09:28 | 59.11601 | 5.65504 | 13591 ft | 322 kts | 160° |
| 2026-04-18 09:28 | 59.09508 | 5.67151 | 14441 ft | 327 kts | 162° |
| 2026-04-18 09:28 | 59.07387 | 5.68781 | 15359 ft | 329 kts | 162° |
| 2026-04-18 09:28 | 59.05247 | 5.70424 | 16256 ft | 332 kts | 162° |
| 2026-04-18 09:29 | 59.03084 | 5.72090 | 17151 ft | 336 kts | 162° |
| 2026-04-18 09:29 | 59.00906 | 5.73776 | 18033 ft | 340 kts | 162° |
| 2026-04-18 09:29 | 58.98689 | 5.75497 | 18836 ft | 344 kts | 162° |
| 2026-04-18 09:29 | 58.96456 | 5.77235 | 19593 ft | 348 kts | 162° |
| 2026-04-18 09:30 | 58.94190 | 5.79000 | 20359 ft | 352 kts | 162° |
| 2026-04-18 09:30 | 58.91907 | 5.80778 | 21097 ft | 357 kts | 162° |
| 2026-04-18 09:30 | 58.89591 | 5.82580 | 21818 ft | 360 kts | 162° |
| 2026-04-18 09:30 | 58.87257 | 5.84396 | 22612 ft | 363 kts | 162° |
| 2026-04-18 09:31 | 58.84900 | 5.86226 | 23383 ft | 367 kts | 162° |
| 2026-04-18 09:31 | 58.82549 | 5.88050 | 24020 ft | 371 kts | 162° |
| 2026-04-18 09:31 | 58.80142 | 5.89914 | 24688 ft | 374 kts | 162° |
| 2026-04-18 09:31 | 58.77719 | 5.91788 | 25380 ft | 375 kts | 163° |
| 2026-04-18 09:32 | 58.75290 | 5.93664 | 26031 ft | 378 kts | 163° |
| 2026-04-18 09:32 | 58.72841 | 5.95552 | 26686 ft | 381 kts | 163° |
| 2026-04-18 09:32 | 58.70370 | 5.97453 | 27302 ft | 383 kts | 163° |
| 2026-04-18 09:32 | 58.67884 | 5.99364 | 27902 ft | 386 kts | 163° |
| 2026-04-18 09:33 | 58.65383 | 6.01283 | 28512 ft | 389 kts | 163° |
| 2026-04-18 09:33 | 58.63819 | 6.02481 | 28869 ft | 390 kts | 163° |
| 2026-04-18 09:33 | 58.61281 | 6.04424 | 29437 ft | 393 kts | 163° |
| 2026-04-18 09:33 | 58.58739 | 6.06367 | 30059 ft | 394 kts | 163° |
| 2026-04-18 09:34 | 58.55376 | 6.08937 | 30859 ft | 393 kts | 163° |
| 2026-04-18 09:34 | 58.52826 | 6.10879 | 31286 ft | 396 kts | 163° |
| 2026-04-18 09:34 | 58.51092 | 6.12196 | 31560 ft | 398 kts | 163° |
| 2026-04-18 09:34 | 58.48513 | 6.14155 | 32039 ft | 399 kts | 163° |
| 2026-04-18 09:35 | 58.45925 | 6.16118 | 32487 ft | 401 kts | 163° |
| 2026-04-18 09:35 | 58.43320 | 6.18090 | 32898 ft | 404 kts | 163° |
| 2026-04-18 09:35 | 58.40703 | 6.20071 | 33345 ft | 405 kts | 163° |
| 2026-04-18 09:35 | 58.38112 | 6.22027 | 33733 ft | 407 kts | 163° |
| 2026-04-18 09:36 | 58.35470 | 6.24019 | 34096 ft | 410 kts | 163° |
| 2026-04-18 09:36 | 58.32866 | 6.26333 | 34457 ft | 415 kts | 157° |
| 2026-04-18 09:36 | 58.30335 | 6.28971 | 34855 ft | 415 kts | 156° |
| 2026-04-18 09:36 | 58.27812 | 6.31690 | 35100 ft | 417 kts | 155° |
| 2026-04-18 09:37 | 58.22781 | 6.37142 | 35102 ft | 415 kts | 155° |
| 2026-04-18 09:37 | 58.17744 | 6.42526 | 35127 ft | 416 kts | 156° |
| 2026-04-18 09:38 | 58.12680 | 6.47871 | 35120 ft | 417 kts | 156° |
| 2026-04-18 09:38 | 58.07603 | 6.53194 | 35121 ft | 418 kts | 156° |
| 2026-04-18 09:39 | 58.02518 | 6.58506 | 35118 ft | 418 kts | 156° |
| 2026-04-18 09:39 | 57.97456 | 6.63778 | 35126 ft | 417 kts | 156° |
| 2026-04-18 09:40 | 57.92351 | 6.69077 | 35120 ft | 416 kts | 156° |
| 2026-04-18 09:40 | 57.87318 | 6.74285 | 35119 ft | 414 kts | 156° |
| 2026-04-18 09:41 | 57.82280 | 6.79480 | 35127 ft | 413 kts | 156° |
| 2026-04-18 09:41 | 57.77224 | 6.84675 | 35130 ft | 414 kts | 156° |
| 2026-04-18 09:42 | 57.72169 | 6.89854 | 35123 ft | 414 kts | 157° |
| 2026-04-18 09:42 | 57.67115 | 6.95017 | 35144 ft | 415 kts | 157° |
| 2026-04-18 09:43 | 57.62038 | 7.00184 | 35128 ft | 415 kts | 157° |
| 2026-04-18 09:43 | 57.56972 | 7.05341 | 35142 ft | 415 kts | 157° |
| 2026-04-18 09:44 | 57.51902 | 7.10468 | 35134 ft | 414 kts | 157° |
| 2026-04-18 09:44 | 57.46883 | 7.15523 | 35124 ft | 411 kts | 157° |
| 2026-04-18 09:45 | 57.41841 | 7.20589 | 35102 ft | 407 kts | 158° |
| 2026-04-18 09:45 | 57.36913 | 7.25528 | 35136 ft | 405 kts | 158° |
| 2026-04-18 09:46 | 57.31954 | 7.30479 | 35141 ft | 404 kts | 158° |
| 2026-04-18 09:46 | 57.26993 | 7.35416 | 35139 ft | 405 kts | 158° |
| 2026-04-18 09:47 | 57.22018 | 7.40354 | 35143 ft | 406 kts | 158° |
| 2026-04-18 09:47 | 57.19561 | 7.42794 | 35121 ft | 394 kts | 158° |
| 2026-04-18 09:47 | 57.17199 | 7.45145 | 35120 ft | 378 kts | 158° |
| 2026-04-18 09:48 | 57.14925 | 7.47405 | 35111 ft | 363 kts | 159° |
| 2026-04-18 09:48 | 57.12842 | 7.49470 | 35123 ft | 349 kts | 159° |
| 2026-04-18 09:48 | 57.10736 | 7.51550 | 35049 ft | 338 kts | 159° |
| 2026-04-18 09:48 | 57.08664 | 7.53583 | 34518 ft | 341 kts | 160° |
| 2026-04-18 09:49 | 57.06504 | 7.55677 | 33314 ft | 360 kts | 160° |
| 2026-04-18 09:49 | 57.04223 | 7.57879 | 31957 ft | 380 kts | 159° |
| 2026-04-18 09:49 | 57.01835 | 7.60192 | 30627 ft | 397 kts | 159° |
| 2026-04-18 09:49 | 56.99348 | 7.62613 | 29203 ft | 410 kts | 158° |
| 2026-04-18 09:50 | 56.96808 | 7.65095 | 28084 ft | 414 kts | 157° |
| 2026-04-18 09:50 | 56.94333 | 7.67528 | 27512 ft | 406 kts | 157° |
| 2026-04-18 09:50 | 56.91842 | 7.69971 | 26999 ft | 408 kts | 157° |
| 2026-04-18 09:50 | 56.89315 | 7.72434 | 26460 ft | 414 kts | 156° |
| 2026-04-18 09:51 | 56.86773 | 7.74905 | 25910 ft | 412 kts | 156° |
| 2026-04-18 09:51 | 56.84251 | 7.77355 | 25398 ft | 409 kts | 156° |
| 2026-04-18 09:51 | 56.81744 | 7.79784 | 24877 ft | 408 kts | 155° |
| 2026-04-18 09:51 | 56.79240 | 7.82206 | 24367 ft | 406 kts | 155° |
| 2026-04-18 09:52 | 56.76755 | 7.84604 | 23853 ft | 404 kts | 155° |
| 2026-04-18 09:52 | 56.74276 | 7.86993 | 23285 ft | 402 kts | 155° |
| 2026-04-18 09:52 | 56.71808 | 7.89368 | 22736 ft | 398 kts | 155° |
| 2026-04-18 09:52 | 56.69371 | 7.91711 | 22230 ft | 394 kts | 155° |
| 2026-04-18 09:53 | 56.66948 | 7.94035 | 21725 ft | 391 kts | 155° |
| 2026-04-18 09:53 | 56.64549 | 7.96332 | 21221 ft | 389 kts | 155° |
| 2026-04-18 09:53 | 56.62159 | 7.98617 | 20725 ft | 387 kts | 155° |
| 2026-04-18 09:53 | 56.59809 | 8.00861 | 20228 ft | 386 kts | 155° |
| 2026-04-18 09:54 | 56.57405 | 8.03153 | 19720 ft | 385 kts | 155° |
| 2026-04-18 09:54 | 56.55066 | 8.05379 | 19234 ft | 384 kts | 155° |
| 2026-04-18 09:54 | 56.52704 | 8.07626 | 18743 ft | 383 kts | 155° |
| 2026-04-18 09:54 | 56.50345 | 8.09865 | 18221 ft | 382 kts | 155° |
| 2026-04-18 09:55 | 56.48001 | 8.12088 | 17650 ft | 379 kts | 155° |
| 2026-04-18 09:55 | 56.45677 | 8.14289 | 17142 ft | 374 kts | 155° |
| 2026-04-18 09:55 | 56.43387 | 8.16456 | 16658 ft | 370 kts | 155° |
| 2026-04-18 09:55 | 56.41113 | 8.18604 | 16175 ft | 367 kts | 155° |
| 2026-04-18 09:56 | 56.38853 | 8.20735 | 15697 ft | 365 kts | 155° |
| 2026-04-18 09:56 | 56.36609 | 8.22848 | 15222 ft | 363 kts | 155° |
| 2026-04-18 09:56 | 56.34376 | 8.24948 | 14740 ft | 361 kts | 155° |
| 2026-04-18 09:56 | 56.32145 | 8.27042 | 14263 ft | 359 kts | 154° |
| 2026-04-18 09:57 | 56.29938 | 8.29112 | 13768 ft | 357 kts | 154° |
| 2026-04-18 09:57 | 56.27740 | 8.31172 | 13238 ft | 355 kts | 155° |
| 2026-04-18 09:57 | 56.25551 | 8.33220 | 12753 ft | 353 kts | 155° |
| 2026-04-18 09:57 | 56.23381 | 8.35248 | 12277 ft | 351 kts | 155° |
| 2026-04-18 09:58 | 56.21221 | 8.37264 | 11813 ft | 346 kts | 155° |
| 2026-04-18 09:58 | 56.19101 | 8.39242 | 11348 ft | 341 kts | 155° |
| 2026-04-18 09:58 | 56.17007 | 8.41191 | 10882 ft | 335 kts | 155° |
| 2026-04-18 09:58 | 56.14952 | 8.43102 | 10450 ft | 331 kts | 155° |
| 2026-04-18 09:59 | 56.12934 | 8.44976 | 10314 ft | 322 kts | 155° |
| 2026-04-18 09:59 | 56.10951 | 8.46815 | 10160 ft | 324 kts | 155° |
| 2026-04-18 09:59 | 56.08947 | 8.48667 | 9747 ft | 331 kts | 155° |
| 2026-04-18 10:00 | 56.04868 | 8.52438 | 8922 ft | 328 kts | 155° |
| 2026-04-18 10:00 | 56.02846 | 8.54305 | 8510 ft | 327 kts | 155° |
| 2026-04-18 10:00 | 56.00827 | 8.56168 | 8101 ft | 326 kts | 155° |
| 2026-04-18 10:00 | 55.98811 | 8.58025 | 7697 ft | 326 kts | 155° |
| 2026-04-18 10:01 | 55.96805 | 8.59870 | 7288 ft | 321 kts | 155° |
| 2026-04-18 10:01 | 55.94837 | 8.61679 | 6891 ft | 315 kts | 155° |
| 2026-04-18 10:01 | 55.92903 | 8.63455 | 6514 ft | 311 kts | 155° |
| 2026-04-18 10:01 | 55.90978 | 8.65219 | 6113 ft | 310 kts | 155° |
| 2026-04-18 10:02 | 55.89056 | 8.66978 | 5710 ft | 309 kts | 154° |
| 2026-04-18 10:02 | 55.87149 | 8.68722 | 5328 ft | 308 kts | 154° |
| 2026-04-18 10:02 | 55.85248 | 8.70460 | 4956 ft | 305 kts | 154° |
| 2026-04-18 10:02 | 55.83381 | 8.72164 | 4578 ft | 299 kts | 154° |
| 2026-04-18 10:03 | 55.81549 | 8.73836 | 4209 ft | 293 kts | 154° |
| 2026-04-18 10:03 | 55.79767 | 8.75463 | 4056 ft | 281 kts | 154° |
| 2026-04-18 10:03 | 55.78080 | 8.76996 | 3932 ft | 271 kts | 154° |
| 2026-04-18 10:03 | 55.76434 | 8.78492 | 3819 ft | 261 kts | 154° |
| 2026-04-18 10:04 | 55.74844 | 8.79936 | 3637 ft | 253 kts | 154° |
| 2026-04-18 10:04 | 55.73387 | 8.81546 | 3454 ft | 243 kts | 135° |
| 2026-04-18 10:04 | 55.72696 | 8.84137 | 3286 ft | 232 kts | 97° |
| 2026-04-18 10:04 | 55.72941 | 8.86886 | 3077 ft | 218 kts | 77° |
| 2026-04-18 10:05 | 55.73218 | 8.89415 | 2912 ft | 201 kts | 85° |
| 2026-04-18 10:05 | 55.73339 | 8.91813 | 2660 ft | 189 kts | 89° |
| 2026-04-18 10:05 | 55.73409 | 8.94062 | 2402 ft | 176 kts | 90° |
| 2026-04-18 10:05 | 55.73464 | 8.96111 | 2232 ft | 156 kts | 90° |
| 2026-04-18 10:06 | 55.73518 | 8.97965 | 2000 ft | 144 kts | 91° |
| 2026-04-18 10:06 | 55.73567 | 8.99644 | 1801 ft | 130 kts | 90° |
| 2026-04-18 10:06 | 55.73613 | 9.01213 | 1662 ft | 125 kts | 92° |
| 2026-04-18 10:06 | 55.73684 | 9.02740 | 1455 ft | 122 kts | 86° |
| 2026-04-18 10:07 | 55.73720 | 9.04240 | 1307 ft | 122 kts | 93° |
| 2026-04-18 10:07 | 55.73749 | 9.05743 | 1129 ft | 121 kts | 93° |
| 2026-04-18 10:07 | 55.73788 | 9.07213 | 972 ft | 116 kts | 91° |
| 2026-04-18 10:07 | 55.73834 | 9.08705 | 788 ft | 123 kts | 91° |
| 2026-04-18 10:08 | 55.73878 | 9.10264 | 642 ft | 129 kts | 88° |
| 2026-04-18 10:08 | 55.73934 | 9.11822 | 409 ft | 122 kts | 88° |
| 2026-04-18 10:08 | 55.73975 | 9.13295 | 237 ft | 117 kts | 89° |
| 2026-04-18 10:08 | 55.74015 | 9.14569 | 215 ft | 85 kts | 87° |
| 2026-04-18 10:09 | 55.74040 | 9.15409 | 215 ft | 60 kts | 86° |
| 2026-04-18 10:09 | 55.74062 | 9.16105 | 215 ft | 52 kts | 86° |
| 2026-04-18 10:09 | 55.74080 | 9.16645 | 218 ft | 30 kts | 86° |
| 2026-04-18 10:09 | 55.74119 | 9.16899 | 215 ft | 19 kts | 22° |
| 2026-04-18 10:10 | 55.74245 | 9.16868 | 217 ft | 19 kts | 313° |
| 2026-04-18 10:10 | 55.74245 | 9.16645 | 215 ft | 18 kts | 264° |
| 2026-04-18 10:10 | 55.74239 | 9.16411 | 215 ft | 20 kts | 267° |
| 2026-04-18 10:10 | 55.74229 | 9.16149 | 215 ft | 23 kts | 265° |
| 2026-04-18 10:11 | 55.74220 | 9.15848 | 215 ft | 26 kts | 268° |
| 2026-04-18 10:11 | 55.74210 | 9.15506 | 215 ft | 29 kts | 266° |
| 2026-04-18 10:11 | 55.74199 | 9.15165 | 215 ft | 27 kts | 266° |
| 2026-04-18 10:11 | 55.74276 | 9.14987 | 215 ft | 20 kts | 359° |
| 2026-04-18 10:12 | 55.74415 | 9.14973 | 218 ft | 19 kts | 338° |
| 2026-04-18 10:12 | 55.74430 | 9.14809 | 215 ft | 12 kts | 266° |
| 2026-04-18 10:12 | 55.74491 | 9.14753 | 215 ft | 10 kts | 358° |
| 2026-04-18 10:12 | 55.74526 | 9.14750 | 219 ft | 3 kts | 357° |
| 2026-04-18 10:13 | 55.74532 | 9.14749 | 218 ft | 0 kts | 357° |